Time;durP1;ratioP1;P1;durP2;ratioP2;P2;SDS_P1;SDS_P2;PMS_P1;PMS_P2;Temp;Humidity;BMP_temperature;BMP_pressure;BME280_temperature;BME280_humidity;BME280_pressure;Samples;Min_cycle;Max_cycle;Signal;HPM_P1;HPM_P2
2023/09/05 00:00:20;;;;;;;0.40;0.33;;;;;;;20.65;58.37;101457.69;5049400;28;20393;-79
2023/09/05 00:02:48;;;;;;;0.40;0.30;;;;;;;20.57;58.38;101456.06;5049343;28;20728;-78
2023/09/05 00:05:15;;;;;;;0.32;0.30;;;;;;;20.57;58.66;101460.63;5049680;28;20397;-79
2023/09/05 00:07:41;;;;;;;0.32;0.30;;;;;;;20.47;58.96;101458.41;5048481;28;20391;-79
2023/09/05 00:10:11;;;;;;;0.38;0.30;;;;;;;20.20;59.79;101453.19;5049262;28;20384;-78
2023/09/05 00:12:40;;;;;;;0.25;0.25;;;;;;;20.05;60.27;101455.34;5048277;28;20563;-79
2023/09/05 00:15:08;;;;;;;0.40;0.30;;;;;;;20.04;60.46;101456.38;5048327;28;20391;-78
2023/09/05 00:17:36;;;;;;;0.50;0.30;;;;;;;19.97;60.72;101461.81;5049325;28;20742;-79
2023/09/05 00:20:08;;;;;;;0.30;0.20;;;;;;;19.92;60.74;101464.31;5049368;28;20814;-79
2023/09/05 00:22:34;;;;;;;0.20;0.20;;;;;;;19.91;60.91;101470.72;5015502;28;20416;-79
2023/09/05 00:25:00;;;;;;;0.45;0.30;;;;;;;19.93;60.56;101475.88;5064585;28;20454;-78
2023/09/05 00:27:26;;;;;;;0.40;0.30;;;;;;;19.74;61.51;101470.38;5049085;28;20389;-78
2023/09/05 00:29:51;;;;;;;0.40;0.40;;;;;;;19.75;61.68;101481.97;5049030;28;20412;-80
2023/09/05 00:32:18;;;;;;;0.40;0.27;;;;;;;19.80;61.37;101474.91;5047914;28;20408;-78
2023/09/05 00:34:45;;;;;;;0.70;0.50;;;;;;;20.08;60.57;101489.06;5049325;28;20384;-79
2023/09/05 00:37:23;;;;;;;0.63;0.40;;;;;;;20.27;59.78;101484.63;5052487;28;20794;-79
2023/09/05 00:39:49;;;;;;;0.33;0.30;;;;;;;20.37;59.43;101495.78;5052781;28;20748;-80
2023/09/05 00:42:15;;;;;;;0.47;0.30;;;;;;;20.39;59.56;101496.38;5052839;28;20395;-79
2023/09/05 00:44:42;;;;;;;0.40;0.30;;;;;;;20.31;59.58;101488.53;5053001;28;20876;-76
2023/09/05 00:47:11;;;;;;;0.43;0.40;;;;;;;20.22;59.96;101496.88;5068553;28;20780;-81
2023/09/05 00:49:46;;;;;;;0.38;0.30;;;;;;;20.14;60.57;101497.13;5052730;28;20384;-81
2023/09/05 00:52:14;;;;;;;0.75;0.70;;;;;;;20.04;60.74;101489.50;5052386;28;20415;-80
2023/09/05 00:54:42;;;;;;;0.32;0.30;;;;;;;20.18;60.42;101500.22;5052848;28;20381;-78
2023/09/05 00:57:14;;;;;;;0.40;0.30;;;;;;;20.54;60.19;101494.19;5052309;28;20387;-80
2023/09/05 00:59:41;;;;;;;0.50;0.35;;;;;;;20.81;59.62;101496.75;5035763;28;20401;-78
2023/09/05 01:02:06;;;;;;;0.30;0.30;;;;;;;20.79;59.12;101491.56;5051301;28;20377;-79
2023/09/05 01:04:33;;;;;;;0.30;0.30;;;;;;;20.62;59.57;101483.19;5051801;28;20767;-80
2023/09/05 01:07:08;;;;;;;0.40;0.30;;;;;;;20.60;59.67;101485.25;5050901;28;20377;-79
2023/09/05 01:09:50;;;;;;;0.50;0.40;;;;;;;20.52;60.13;101482.00;5050862;28;20376;-78
2023/09/05 01:12:16;;;;;;;0.50;0.45;;;;;;;20.47;60.23;101477.25;5050748;28;20401;-78
2023/09/05 01:14:42;;;;;;;0.30;0.30;;;;;;;20.48;60.00;101472.72;5050753;28;20385;-78
2023/09/05 01:17:07;;;;;;;0.60;0.50;;;;;;;20.49;60.16;101474.34;5049809;28;20414;-80
2023/09/05 01:19:43;;;;;;;0.50;0.50;;;;;;;20.47;60.25;101476.44;5047883;28;20442;-79
2023/09/05 01:22:48;;;;;;;0.75;0.55;;;;;;;20.51;60.10;101473.09;5046333;28;20393;-81
2023/09/05 01:25:14;;;;;;;0.90;0.50;;;;;;;20.53;60.23;101475.59;5048063;28;20420;-79
2023/09/05 01:27:48;;;;;;;0.50;0.40;;;;;;;20.52;60.03;101473.91;5050132;28;20384;-78
2023/09/05 01:30:14;;;;;;;0.38;0.30;;;;;;;20.51;59.92;101475.78;5050404;28;20454;-78
2023/09/05 01:32:39;;;;;;;0.30;0.20;;;;;;;20.56;60.05;101475.13;5050011;28;20397;-78
2023/09/05 01:35:05;;;;;;;2.70;0.80;;;;;;;20.55;60.02;101476.19;5051236;28;20957;-78
2023/09/05 01:37:31;;;;;;;0.30;0.30;;;;;;;20.57;59.90;101476.78;5051081;28;20388;-79
2023/09/05 01:39:56;;;;;;;0.30;0.30;;;;;;;20.62;59.74;101474.31;5051167;28;20446;-78
2023/09/05 01:42:22;;;;;;;0.20;0.20;;;;;;;20.78;59.48;101481.03;5064861;28;20509;-77
2023/09/05 01:44:47;;;;;;;0.20;0.20;;;;;;;20.79;59.34;101483.47;5071893;28;20909;-78
2023/09/05 01:47:13;;;;;;;0.32;0.32;;;;;;;20.77;59.36;101485.56;5071438;28;20382;-77
2023/09/05 01:49:38;;;;;;;0.30;0.23;;;;;;;20.83;59.26;101488.44;5071971;28;20796;-77
2023/09/05 01:52:04;;;;;;;0.20;0.20;;;;;;;20.85;59.15;101497.13;5071407;28;20398;-78
2023/09/05 01:54:29;;;;;;;0.30;0.20;;;;;;;20.88;59.24;101505.59;5071798;28;20376;-78
2023/09/05 01:56:55;;;;;;;0.20;0.20;;;;;;;20.88;59.20;101507.47;5071374;28;20932;-78
2023/09/05 01:59:21;;;;;;;0.28;0.22;;;;;;;20.84;59.18;101496.31;5071816;28;20387;-78
2023/09/05 02:01:46;;;;;;;0.27;0.27;;;;;;;20.93;59.13;101496.88;5087411;28;20405;-77
2023/09/05 02:04:12;;;;;;;0.30;0.30;;;;;;;20.94;59.05;101493.09;5071316;28;20371;-77
2023/09/05 02:06:40;;;;;;;0.20;0.20;;;;;;;20.91;59.10;101502.47;5070393;28;20519;-78
2023/09/05 02:09:07;;;;;;;0.40;0.30;;;;;;;20.89;59.02;101507.25;5071340;28;20741;-78
2023/09/05 02:11:33;;;;;;;0.30;0.30;;;;;;;20.90;59.32;101506.19;5071619;28;20877;-77
2023/09/05 02:13:58;;;;;;;0.30;0.30;;;;;;;20.90;59.07;101514.28;5071275;28;20474;-77
2023/09/05 02:16:24;;;;;;;0.10;0.10;;;;;;;20.85;59.11;101502.50;5071848;28;20385;-79
2023/09/05 02:18:50;;;;;;;0.30;0.22;;;;;;;20.93;59.15;101526.50;5071272;28;20386;-81
2023/09/05 02:21:20;;;;;;;0.43;0.40;;;;;;;20.98;58.87;101529.38;5070963;28;20816;-79
2023/09/05 02:23:45;;;;;;;0.30;0.30;;;;;;;21.03;58.75;101526.00;5086665;28;20403;-79
2023/09/05 02:26:12;;;;;;;0.30;0.30;;;;;;;21.02;58.65;101517.09;5086795;28;20470;-80
2023/09/05 02:28:38;;;;;;;0.30;0.30;;;;;;;21.04;58.67;101522.28;5061271;28;20405;-81
2023/09/05 02:31:06;;;;;;;0.30;0.30;;;;;;;21.06;58.70;101536.38;5030876;28;20410;-80
2023/09/05 02:33:34;;;;;;;0.22;0.22;;;;;;;21.11;58.62;101534.66;5029206;28;20390;-80
2023/09/05 02:36:15;;;;;;;0.33;0.30;;;;;;;21.09;58.33;101522.44;5013122;28;20386;-79
2023/09/05 02:38:42;;;;;;;0.50;0.40;;;;;;;21.07;58.56;101522.66;5029761;28;20488;-80
2023/09/05 02:41:15;;;;;;;0.30;0.30;;;;;;;21.07;58.43;101529.91;5038974;28;20480;-79
2023/09/05 02:43:41;;;;;;;0.30;0.30;;;;;;;21.02;58.70;101535.16;5050162;28;20866;-80
2023/09/05 02:46:08;;;;;;;0.28;0.25;;;;;;;20.95;58.85;101535.19;5036297;28;20397;-81
2023/09/05 02:48:41;;;;;;;0.75;0.60;;;;;;;20.94;58.75;101533.53;5028898;28;20382;-82
2023/09/05 02:51:08;;;;;;;0.40;0.32;;;;;;;20.89;59.12;101528.00;5032856;28;20406;-82
2023/09/05 02:53:34;;;;;;;0.30;0.30;;;;;;;20.99;58.77;101529.16;5028881;28;20379;-83
2023/09/05 02:56:00;;;;;;;0.40;0.40;;;;;;;21.05;58.67;101529.31;5029828;28;20394;-83
2023/09/05 02:58:27;;;;;;;0.40;0.30;;;;;;;20.94;58.84;101537.09;5061237;28;20406;-84
2023/09/05 03:01:02;;;;;;;0.35;0.35;;;;;;;20.88;59.21;101529.84;5045230;28;20482;-80
2023/09/05 03:03:28;;;;;;;0.15;0.15;;;;;;;20.79;59.62;101539.25;5028704;28;20927;-80
2023/09/05 03:05:53;;;;;;;0.63;0.63;;;;;;;20.60;60.46;101538.31;5029636;28;20409;-80
2023/09/05 03:08:22;;;;;;;0.40;0.40;;;;;;;20.52;60.58;101534.00;5061759;28;20460;-79
2023/09/05 03:10:50;;;;;;;0.20;0.20;;;;;;;20.57;60.59;101522.59;5028644;28;20446;-79
2023/09/05 03:13:16;;;;;;;0.40;0.35;;;;;;;20.34;61.68;101528.50;5030017;28;20375;-80
2023/09/05 03:15:42;;;;;;;0.30;0.30;;;;;;;20.21;62.24;101529.41;5029826;28;20398;-80
2023/09/05 03:18:07;;;;;;;0.40;0.40;;;;;;;20.36;61.81;101532.63;5029727;28;20486;-80
2023/09/05 03:20:33;;;;;;;0.30;0.30;;;;;;;20.41;61.44;101537.38;5044720;28;20492;-81
2023/09/05 03:22:58;;;;;;;0.57;0.57;;;;;;;20.34;61.70;101533.88;5027895;28;20489;-80
2023/09/05 03:25:24;;;;;;;0.30;0.30;;;;;;;20.29;61.85;101531.00;5029616;28;20390;-80
2023/09/05 03:27:50;;;;;;;0.40;0.40;;;;;;;20.20;62.13;101530.44;5029679;28;20390;-80
2023/09/05 03:30:15;;;;;;;0.20;0.20;;;;;;;20.14;62.46;101533.97;5030061;28;20374;-80
2023/09/05 03:32:43;;;;;;;0.40;0.30;;;;;;;20.04;62.83;101529.03;5030071;28;20386;-80
2023/09/05 03:35:08;;;;;;;0.30;0.30;;;;;;;19.98;63.11;101537.97;5029747;28;20413;-79
2023/09/05 03:37:34;;;;;;;0.30;0.30;;;;;;;19.99;62.89;101542.34;5028699;28;20482;-80
2023/09/05 03:40:01;;;;;;;0.30;0.30;;;;;;;19.90;63.41;101544.44;5029799;28;20884;-81
2023/09/05 03:42:26;;;;;;;0.20;0.20;;;;;;;19.81;63.83;101543.00;5028945;28;20473;-80
2023/09/05 03:44:54;;;;;;;0.30;0.30;;;;;;;19.59;64.61;101543.22;5028704;28;20486;-81
2023/09/05 03:47:19;;;;;;;0.47;0.32;;;;;;;19.67;64.39;101540.28;5027587;28;20394;-80
2023/09/05 03:49:45;;;;;;;0.40;0.40;;;;;;;19.59;64.83;101547.75;5029463;28;20688;-79
2023/09/05 03:52:12;;;;;;;0.20;0.20;;;;;;;19.73;64.56;101552.09;5045591;28;20404;-79
2023/09/05 03:54:38;;;;;;;0.40;0.32;;;;;;;19.95;63.64;101552.69;5064731;28;20756;-78
2023/09/05 03:57:04;;;;;;;0.40;0.38;;;;;;;20.03;63.18;101546.25;5049215;28;20369;-78
2023/09/05 03:59:29;;;;;;;0.30;0.30;;;;;;;19.97;63.36;101549.75;5049029;28;20439;-76
2023/09/05 04:01:55;;;;;;;0.55;0.40;;;;;;;19.96;63.44;101551.63;5046902;28;20404;-76
2023/09/05 04:04:21;;;;;;;0.30;0.30;;;;;;;19.99;63.66;101553.91;5043243;28;20484;-78
2023/09/05 04:06:46;;;;;;;0.52;0.50;;;;;;;19.92;63.85;101553.09;5027056;28;20401;-78
2023/09/05 04:09:14;;;;;;;0.40;0.40;;;;;;;20.02;63.45;101561.56;5027559;28;20418;-78
2023/09/05 04:11:40;;;;;;;0.35;0.30;;;;;;;20.02;63.50;101566.09;5046389;28;20412;-75
2023/09/05 04:14:05;;;;;;;0.80;0.70;;;;;;;20.00;63.71;101560.94;5051027;28;20384;-78
2023/09/05 04:16:31;;;;;;;0.30;0.30;;;;;;;19.97;63.81;101555.16;5049633;28;20395;-79
2023/09/05 04:18:59;;;;;;;0.30;0.30;;;;;;;19.88;64.48;101569.88;5066470;28;20965;-79
2023/09/05 04:21:24;;;;;;;0.50;0.45;;;;;;;19.89;64.60;101560.78;5053136;28;20841;-78
2023/09/05 04:23:50;;;;;;;0.30;0.30;;;;;;;19.97;64.29;101566.75;5051036;28;20406;-77
2023/09/05 04:26:16;;;;;;;0.53;0.53;;;;;;;19.84;64.88;101561.41;5051530;28;20454;-78
2023/09/05 04:28:41;;;;;;;0.50;0.40;;;;;;;19.90;64.80;101568.66;5055252;28;20394;-77
2023/09/05 04:31:07;;;;;;;0.60;0.40;;;;;;;20.12;63.87;101569.19;5031518;28;20406;-79
2023/09/05 04:33:36;;;;;;;0.33;0.30;;;;;;;20.20;63.97;101573.50;5046609;28;20696;-78
2023/09/05 04:36:05;;;;;;;0.40;0.40;;;;;;;20.21;63.85;101567.09;5039835;28;20465;-78
2023/09/05 04:38:31;;;;;;;0.40;0.38;;;;;;;20.44;63.31;101567.41;5036187;28;20422;-79
2023/09/05 04:41:03;;;;;;;0.47;0.40;;;;;;;20.55;62.82;101578.53;5041320;28;20492;-78
2023/09/05 04:43:30;;;;;;;0.52;0.50;;;;;;;20.56;63.17;101572.94;5041092;28;20396;-80
2023/09/05 04:45:56;;;;;;;0.28;0.20;;;;;;;20.56;63.04;101582.88;5031906;28;20853;-80
2023/09/05 04:48:22;;;;;;;0.50;0.40;;;;;;;20.72;62.72;101585.09;5032040;28;20397;-79
2023/09/05 04:50:48;;;;;;;0.50;0.40;;;;;;;20.83;62.42;101582.75;5027586;28;20489;-78
2023/09/05 04:53:14;;;;;;;0.60;0.50;;;;;;;20.87;62.52;101581.28;5044042;28;20474;-78
2023/09/05 04:55:42;;;;;;;0.30;0.30;;;;;;;21.06;62.14;101587.56;5044791;28;20440;-78
2023/09/05 04:58:13;;;;;;;0.20;0.20;;;;;;;21.12;61.77;101584.84;5032648;28;20971;-78
2023/09/05 05:00:47;;;;;;;0.30;0.30;;;;;;;21.18;61.75;101589.34;5052065;28;20388;-79
2023/09/05 05:03:14;;;;;;;0.30;0.25;;;;;;;21.23;61.66;101587.84;5052783;28;20468;-78
2023/09/05 05:05:40;;;;;;;0.35;0.35;;;;;;;21.27;61.52;101587.22;5052688;28;20428;-78
2023/09/05 05:08:05;;;;;;;0.30;0.25;;;;;;;21.34;61.32;101584.47;5053096;28;20522;-77
2023/09/05 05:10:33;;;;;;;0.20;0.20;;;;;;;21.20;61.53;101584.56;5068065;28;20396;-78
2023/09/05 05:13:00;;;;;;;0.22;0.22;;;;;;;21.27;61.53;101598.00;5052690;28;20408;-77
2023/09/05 05:15:25;;;;;;;0.30;0.30;;;;;;;21.27;61.81;101594.47;5067739;28;20428;-77
2023/09/05 05:17:51;;;;;;;0.20;0.20;;;;;;;21.36;61.25;101604.75;5052286;28;20392;-77
2023/09/05 05:20:18;;;;;;;0.10;0.10;;;;;;;21.31;61.27;101593.81;5050641;28;20755;-77
2023/09/05 05:22:44;;;;;;;0.15;0.15;;;;;;;21.38;61.05;101610.75;5066765;28;20550;-80
2023/09/05 05:25:09;;;;;;;0.40;0.40;;;;;;;21.41;61.15;101605.97;5034372;28;20737;-78
2023/09/05 05:27:35;;;;;;;0.30;0.30;;;;;;;21.41;61.15;101604.13;5051988;28;20391;-78
2023/09/05 05:30:02;;;;;;;0.45;0.45;;;;;;;21.53;60.88;101604.25;5052539;28;20759;-78
2023/09/05 05:32:28;;;;;;;0.20;0.20;;;;;;;21.64;60.51;101600.81;5067775;28;20439;-79
2023/09/05 05:34:54;;;;;;;0.20;0.20;;;;;;;21.83;60.21;101603.56;5067752;28;20467;-79
2023/09/05 05:37:20;;;;;;;1.63;0.40;;;;;;;21.87;60.22;101599.34;5052171;28;20384;-79
2023/09/05 05:39:46;;;;;;;0.35;0.35;;;;;;;21.72;60.01;101597.00;5052138;28;20382;-78
2023/09/05 05:42:11;;;;;;;0.20;0.20;;;;;;;21.67;60.48;101603.06;5051522;28;20794;-77
2023/09/05 05:44:37;;;;;;;0.43;0.43;;;;;;;21.75;60.32;101601.94;5052235;28;20442;-77
2023/09/05 05:47:03;;;;;;;2.92;0.98;;;;;;;21.97;59.91;101596.97;5056305;22;20388;-80
2023/09/05 05:49:30;;;;;;;0.25;0.25;;;;;;;22.05;59.46;101591.25;5012246;28;20467;-79
2023/09/05 05:52:00;;;;;;;0.60;0.57;;;;;;;22.22;59.61;101598.75;4994627;28;20495;-77
2023/09/05 05:54:26;;;;;;;0.20;0.20;;;;;;;22.28;59.35;101592.47;4994571;28;20391;-79
2023/09/05 05:56:53;;;;;;;0.20;0.20;;;;;;;22.26;59.24;101590.00;5010978;28;20479;-77
2023/09/05 05:59:19;;;;;;;0.28;0.28;;;;;;;22.40;58.80;101596.06;4994974;28;20404;-77
2023/09/05 06:01:44;;;;;;;0.32;0.32;;;;;;;22.53;58.72;101589.66;5003359;28;20472;-78
2023/09/05 06:04:12;;;;;;;1.10;0.80;;;;;;;22.58;58.71;101584.41;5000957;28;20425;-80
2023/09/05 06:06:38;;;;;;;0.20;0.20;;;;;;;22.65;58.54;101587.84;5002597;28;20391;-80
2023/09/05 06:09:04;;;;;;;0.25;0.20;;;;;;;22.72;58.46;101595.84;5007656;28;20390;-79
2023/09/05 06:11:29;;;;;;;0.20;0.20;;;;;;;22.68;57.91;101595.47;4988176;28;20938;-79
2023/09/05 06:13:56;;;;;;;0.50;0.40;;;;;;;22.42;57.78;101598.53;5000757;28;20384;-80
2023/09/05 06:16:22;;;;;;;0.20;0.20;;;;;;;22.27;57.87;101591.66;5002762;28;20388;-80
2023/09/05 06:18:48;;;;;;;0.20;0.20;;;;;;;22.30;57.76;101596.59;5006273;28;20405;-80
2023/09/05 06:21:14;;;;;;;0.70;0.60;;;;;;;22.39;57.55;101596.31;5003236;28;20487;-79
2023/09/05 06:23:39;;;;;;;0.27;0.27;;;;;;;22.55;57.51;101595.66;5006024;28;20719;-78
2023/09/05 06:26:05;;;;;;;0.25;0.25;;;;;;;22.65;57.37;101598.66;5011975;28;20449;-79
2023/09/05 06:28:30;;;;;;;0.28;0.28;;;;;;;22.71;57.06;101595.03;4994170;28;20961;-78
2023/09/05 06:30:57;;;;;;;0.33;0.33;;;;;;;22.65;57.36;101595.94;5011730;28;20419;-81
2023/09/05 06:33:23;;;;;;;0.38;0.38;;;;;;;22.80;57.02;101592.81;4977251;28;20407;-79
2023/09/05 06:35:49;;;;;;;0.53;0.53;;;;;;;22.94;56.91;101595.31;4999425;28;20387;-78
2023/09/05 06:38:15;;;;;;;0.77;0.22;;;;;;;22.94;56.56;101589.91;4988493;28;20394;-79
2023/09/05 06:40:40;;;;;;;0.20;0.20;;;;;;;22.99;56.70;101600.88;4984771;28;20420;-80
2023/09/05 06:43:09;;;;;;;0.20;0.20;;;;;;;23.12;56.38;101603.41;5006633;28;20478;-78
2023/09/05 06:45:34;;;;;;;0.20;0.20;;;;;;;23.23;56.12;101593.66;5010722;28;20814;-81
2023/09/05 06:48:00;;;;;;;0.10;0.10;;;;;;;23.57;55.91;101594.75;5003094;28;20413;-82
2023/09/05 06:50:26;;;;;;;0.43;0.43;;;;;;;23.52;55.54;101583.81;5006970;28;20411;-80
2023/09/05 06:52:52;;;;;;;0.20;0.20;;;;;;;23.42;54.85;101588.97;4991745;28;20397;-84
2023/09/05 06:55:18;;;;;;;0.20;0.20;;;;;;;23.23;55.05;101590.97;4993786;28;20400;-81
2023/09/05 06:57:44;;;;;;;0.20;0.20;;;;;;;23.39;54.93;101590.28;4992224;28;20404;-89
2023/09/05 07:00:10;;;;;;;0.70;0.50;;;;;;;23.57;55.02;101589.34;4994332;28;20469;-84
2023/09/05 07:02:36;;;;;;;0.13;0.13;;;;;;;23.77;54.72;101588.97;4979232;28;20394;-85
2023/09/05 07:05:01;;;;;;;0.33;0.30;;;;;;;24.13;53.87;101595.19;4993201;28;20393;-86
2023/09/05 07:07:27;;;;;;;0.10;0.10;;;;;;;24.15;53.93;101593.06;4993397;28;20398;-82
2023/09/05 07:09:53;;;;;;;0.30;0.30;;;;;;;24.47;53.45;101603.44;4996383;28;20720;-79
2023/09/05 07:12:19;;;;;;;0.30;0.30;;;;;;;24.48;53.17;101598.84;4991015;28;20511;-81
2023/09/05 07:14:45;;;;;;;0.10;0.10;;;;;;;24.40;52.66;101587.31;4991948;28;20394;-78
2023/09/05 07:17:11;;;;;;;0.20;0.20;;;;;;;24.40;52.94;101602.78;4991124;28;20424;-79
2023/09/05 07:19:36;;;;;;;0.20;0.20;;;;;;;24.18;52.82;101591.75;4999760;28;20394;-78
2023/09/05 07:22:03;;;;;;;0.17;0.17;;;;;;;24.14;53.26;101598.72;4996237;28;20386;-78
2023/09/05 07:24:28;;;;;;;0.10;0.10;;;;;;;24.20;53.13;101597.75;4973565;28;20389;-77
2023/09/05 07:26:54;;;;;;;0.20;0.20;;;;;;;24.38;52.77;101599.44;4973747;28;20408;-80
2023/09/05 07:29:20;;;;;;;0.27;0.27;;;;;;;24.47;52.42;101605.31;4990906;28;20463;-80
2023/09/05 07:31:47;;;;;;;0.20;0.20;;;;;;;24.45;51.87;101612.88;4993166;28;20413;-80
2023/09/05 07:34:13;;;;;;;0.20;0.20;;;;;;;24.46;51.92;101607.22;4975762;28;20403;-79
2023/09/05 07:36:41;;;;;;;0.20;0.20;;;;;;;24.59;51.47;101606.94;4990280;28;20475;-81
2023/09/05 07:39:06;;;;;;;0.30;0.30;;;;;;;24.74;50.41;101611.84;5004427;28;20398;-79
2023/09/05 07:41:33;;;;;;;0.30;0.30;;;;;;;24.72;49.83;101616.69;4998076;28;20432;-79
2023/09/05 07:43:59;;;;;;;0.20;0.20;;;;;;;24.97;49.85;101616.34;4998984;28;20452;-79
2023/09/05 07:46:25;;;;;;;0.20;0.20;;;;;;;25.02;48.86;101626.44;4999857;28;20944;-79
2023/09/05 07:48:52;;;;;;;0.40;0.40;;;;;;;25.00;47.59;101610.41;5001036;28;20400;-78
2023/09/05 07:51:22;;;;;;;0.20;0.20;;;;;;;25.09;47.18;101621.69;5000535;28;20416;-76
2023/09/05 07:53:59;;;;;;;2.20;1.20;;;;;;;25.05;46.32;101620.53;4990834;28;20390;-79
2023/09/05 07:56:24;;;;;;;0.30;0.30;;;;;;;25.18;45.95;101625.63;4973661;28;20432;-76
2023/09/05 07:58:50;;;;;;;0.20;0.20;;;;;;;25.04;45.57;101627.00;4990811;28;20421;-80
2023/09/05 08:01:17;;;;;;;0.80;0.40;;;;;;;24.97;45.19;101629.91;4989782;28;20381;-79
2023/09/05 08:03:44;;;;;;;0.40;0.40;;;;;;;25.00;45.00;101628.56;5003064;28;20493;-78
2023/09/05 08:06:09;;;;;;;0.30;0.30;;;;;;;25.06;45.02;101633.00;4986175;28;20448;-80
2023/09/05 08:08:35;;;;;;;0.30;0.30;;;;;;;25.07;44.51;101642.81;5001300;28;20435;-78
2023/09/05 08:11:00;;;;;;;0.20;0.20;;;;;;;25.06;44.68;101638.44;4995978;28;20447;-79
2023/09/05 08:13:26;;;;;;;0.50;0.50;;;;;;;25.43;44.98;101646.16;5001180;28;20555;-80
2023/09/05 08:15:53;;;;;;;0.40;0.40;;;;;;;25.37;44.35;101647.13;4998206;28;20436;-81
2023/09/05 08:18:19;;;;;;;0.30;0.30;;;;;;;25.43;44.13;101650.78;4989453;28;20408;-80
2023/09/05 08:20:44;;;;;;;0.33;0.33;;;;;;;25.42;44.50;101644.50;4989223;28;20470;-79
2023/09/05 08:23:11;;;;;;;1.60;0.80;;;;;;;25.53;44.36;101648.19;4989110;28;20415;-80
2023/09/05 08:25:37;;;;;;;0.20;0.20;;;;;;;25.54;44.08;101649.84;4989017;28;20400;-80
2023/09/05 08:28:03;;;;;;;0.20;0.20;;;;;;;25.72;43.71;101646.88;5009036;28;20487;-78
2023/09/05 08:30:31;;;;;;;0.30;0.30;;;;;;;25.82;43.90;101643.50;4976649;28;20431;-81
2023/09/05 08:33:04;;;;;;;0.10;0.10;;;;;;;26.03;43.77;101647.34;5010053;28;20837;-78
2023/09/05 08:35:30;;;;;;;0.17;0.17;;;;;;;25.90;43.22;101656.63;5008948;28;20830;-81
2023/09/05 08:37:57;;;;;;;0.20;0.20;;;;;;;26.04;43.31;101642.75;4992826;28;20392;-81
2023/09/05 08:40:23;;;;;;;0.70;0.60;;;;;;;26.02;41.75;101643.00;5010713;28;20384;-77
2023/09/05 08:42:53;;;;;;;0.10;0.10;;;;;;;26.13;41.76;101636.59;5010056;28;20430;-78
2023/09/05 08:45:23;;;;;;;0.20;0.20;;;;;;;26.04;41.35;101648.19;5001626;28;20605;-77
2023/09/05 08:47:51;;;;;;;0.10;0.10;;;;;;;26.14;41.70;101640.13;4990304;28;20425;-77
2023/09/05 08:50:17;;;;;;;0.15;0.15;;;;;;;26.30;41.23;101649.31;4989231;28;20401;-78
2023/09/05 08:52:43;;;;;;;0.23;0.23;;;;;;;25.73;40.20;101648.53;4988807;28;20422;-78
2023/09/05 08:55:10;;;;;;;0.20;0.20;;;;;;;25.84;40.59;101643.22;4973064;28;20409;-78
2023/09/05 08:57:40;;;;;;;0.15;0.15;;;;;;;25.96;40.09;101651.31;4992747;28;20400;-78
2023/09/05 09:00:07;;;;;;;0.20;0.20;;;;;;;26.15;40.28;101639.06;4992314;28;20405;-77
2023/09/05 09:02:35;;;;;;;0.10;0.10;;;;;;;26.36;40.71;101642.84;4994021;28;20394;-79
2023/09/05 09:05:01;;;;;;;0.32;0.32;;;;;;;26.45;40.16;101635.91;4993391;28;20408;-79
2023/09/05 09:07:29;;;;;;;0.40;0.30;;;;;;;26.48;40.04;101640.81;4993774;28;20510;-80
2023/09/05 09:10:01;;;;;;;0.20;0.20;;;;;;;26.62;40.30;101629.59;4993563;28;20389;-79
2023/09/05 09:12:31;;;;;;;0.22;0.22;;;;;;;26.63;39.60;101637.50;4992468;28;20855;-79
2023/09/05 09:15:09;;;;;;;0.35;0.35;;;;;;;26.62;38.82;101635.03;4995990;28;20392;-79
2023/09/05 09:17:36;;;;;;;0.30;0.30;;;;;;;26.67;38.69;101632.38;5009476;28;20394;-82
2023/09/05 09:20:06;;;;;;;0.10;0.10;;;;;;;26.72;37.78;101626.97;4979960;28;20396;-78
2023/09/05 09:22:31;;;;;;;0.20;0.20;;;;;;;26.40;37.56;101626.84;4995718;28;20449;-79
2023/09/05 09:24:57;;;;;;;0.30;0.30;;;;;;;26.58;37.74;101622.97;4995470;28;20475;-77
2023/09/05 09:27:23;;;;;;;0.30;0.30;;;;;;;26.49;37.12;101630.78;5013041;28;20412;-78
2023/09/05 09:29:54;;;;;;;0.20;0.20;;;;;;;26.38;37.04;101626.28;5012717;28;20451;-80
2023/09/05 09:32:24;;;;;;;0.20;0.20;;;;;;;26.64;37.38;101622.00;5012497;28;20466;-79
2023/09/05 09:34:50;;;;;;;0.50;0.50;;;;;;;26.85;37.90;101628.47;4994917;28;20395;-81
2023/09/05 09:37:30;;;;;;;0.40;0.40;;;;;;;27.00;37.92;101628.63;5010002;28;20392;-77
2023/09/05 09:40:04;;;;;;;0.10;0.10;;;;;;;27.17;38.35;101619.50;5010882;28;20398;-78
2023/09/05 09:42:30;;;;;;;0.23;0.23;;;;;;;27.31;38.18;101626.19;4994723;28;20388;-78
2023/09/05 09:44:55;;;;;;;0.17;0.17;;;;;;;27.38;38.53;101615.06;5013058;28;20744;-78
2023/09/05 09:47:21;;;;;;;0.20;0.20;;;;;;;27.52;38.54;101613.53;4995125;28;20400;-79
2023/09/05 09:49:49;;;;;;;0.40;0.40;;;;;;;27.51;38.35;101609.16;5011570;28;20900;-80
2023/09/05 09:52:16;;;;;;;0.30;0.30;;;;;;;27.52;38.08;101612.72;5011660;28;20416;-80
2023/09/05 09:54:44;;;;;;;0.25;0.25;;;;;;;27.56;38.34;101611.13;5011325;28;20392;-79
2023/09/05 09:57:15;;;;;;;0.17;0.17;;;;;;;27.48;38.02;101612.44;5011046;28;20392;-80
2023/09/05 09:59:56;;;;;;;0.10;0.10;;;;;;;27.48;37.95;101609.72;5012012;28;20879;-79
2023/09/05 10:02:24;;;;;;;0.20;0.20;;;;;;;27.57;37.39;101601.88;5011011;28;20468;-77
2023/09/05 10:04:51;;;;;;;0.20;0.20;;;;;;;27.42;37.29;101599.84;4994297;28;20431;-79
2023/09/05 10:07:18;;;;;;;0.30;0.30;;;;;;;27.45;37.52;101593.88;5010505;28;20471;-78
2023/09/05 10:09:45;;;;;;;0.30;0.30;;;;;;;27.63;38.15;101600.81;5010784;28;20492;-78
2023/09/05 10:12:11;;;;;;;0.35;0.35;;;;;;;27.65;37.36;101596.72;4994770;28;20415;-78
2023/09/05 10:14:40;;;;;;;0.20;0.20;;;;;;;27.69;37.57;101596.22;5011919;28;20384;-78
2023/09/05 10:17:05;;;;;;;0.20;0.20;;;;;;;27.70;37.76;101595.94;4994791;28;20396;-78
2023/09/05 10:19:32;;;;;;;0.20;0.20;;;;;;;27.75;37.79;101584.25;5011670;28;20384;-78
2023/09/05 10:21:59;;;;;;;0.20;0.20;;;;;;;27.87;37.46;101581.31;5010750;28;20396;-78
2023/09/05 10:24:27;;;;;;;0.20;0.20;;;;;;;27.91;37.37;101582.44;5011597;28;20384;-80
2023/09/05 10:26:53;;;;;;;0.30;0.30;;;;;;;27.84;37.18;101579.97;5011896;28;20981;-80
2023/09/05 10:29:34;;;;;;;0.20;0.20;;;;;;;27.87;37.09;101581.31;4994336;28;20400;-79
2023/09/05 10:32:04;;;;;;;0.20;0.20;;;;;;;27.96;37.15;101574.31;5011499;28;20482;-78
2023/09/05 10:34:47;;;;;;;0.30;0.20;;;;;;;27.97;36.77;101567.78;5012246;28;20384;-77
2023/09/05 10:37:33;;;;;;;0.38;0.38;;;;;;;28.02;36.06;101578.72;5011527;28;20384;-78
2023/09/05 10:40:10;;;;;;;0.30;0.30;;;;;;;27.80;36.60;101585.13;5011126;28;20767;-78
2023/09/05 10:42:56;;;;;;;0.40;0.40;;;;;;;27.72;36.43;101584.78;4995337;28;20388;-79
2023/09/05 10:45:22;;;;;;;0.20;0.20;;;;;;;27.81;36.04;101580.47;5009869;28;20388;-79
2023/09/05 10:47:49;;;;;;;0.30;0.30;;;;;;;27.78;35.62;101575.53;5011468;28;20422;-79
2023/09/05 10:50:19;;;;;;;0.30;0.30;;;;;;;27.61;34.59;101573.03;5011648;28;20388;-79
2023/09/05 10:52:49;;;;;;;0.30;0.30;;;;;;;27.46;33.93;101562.88;4993615;28;20403;-80
2023/09/05 10:55:31;;;;;;;0.20;0.20;;;;;;;27.47;34.60;101569.94;4993728;28;20391;-78
2023/09/05 10:57:59;;;;;;;0.30;0.30;;;;;;;27.64;34.71;101558.84;5011384;28;20450;-78
2023/09/05 11:00:28;;;;;;;0.30;0.30;;;;;;;27.71;35.10;101566.78;5010735;28;20394;-79
2023/09/05 11:02:56;;;;;;;0.20;0.20;;;;;;;27.73;34.54;101562.75;5011781;28;20464;-78
2023/09/05 11:05:26;;;;;;;0.20;0.20;;;;;;;27.54;34.81;101558.81;4993883;28;20450;-79
2023/09/05 11:07:55;;;;;;;0.20;0.20;;;;;;;27.30;34.82;101550.22;5010305;28;20399;-78
2023/09/05 11:10:33;;;;;;;0.20;0.20;;;;;;;27.26;34.77;101544.44;5011129;28;20414;-78
2023/09/05 11:13:08;;;;;;;0.30;0.30;;;;;;;27.41;34.60;101536.41;5011089;28;20416;-78
2023/09/05 11:15:36;;;;;;;0.35;0.35;;;;;;;27.36;34.50;101544.53;5011506;28;20446;-79
2023/09/05 11:18:04;;;;;;;0.25;0.25;;;;;;;27.45;34.59;101536.69;5010115;28;20392;-77
2023/09/05 11:20:40;;;;;;;0.30;0.30;;;;;;;27.61;34.96;101541.16;4993165;28;20454;-82
2023/09/05 11:23:20;;;;;;;0.30;0.30;;;;;;;27.68;34.68;101542.78;4993727;28;20383;-78
2023/09/05 11:25:49;;;;;;;0.10;0.10;;;;;;;27.53;34.27;101538.94;4993768;28;20932;-78